Terminal Aerodrome Forecast
Issued by NWS

Current Version | Previous Version | Graphics & Text | Print | Product List | Glossary On
Versions: 1 2 3 4 5 6 7 8 9 10 11 12 13 14 15 16 17 18 19 20 21 22
000
FTUS41 KRLX 310520
TAFCKB
TAF
KCKB 310520Z 3106/0106 00000KT P6SM SKC
     FM310700 00000KT 6SM HZ SKC
     FM310900 00000KT 5SM BR SKC
     FM311300 00000KT P6SM SKC
     FM311600 26006KT P6SM SCT250=

USA.gov is the U.S. government's official web portal to all federal, state and local government web resources and services.